Decoded Metar for KAXN (ALEXANDRIA in MN, USA) (IATA:AXN) | Meteo·Mobile Aviation Weather
aviador You're here:

KAXN Decoded Metar

ALEXANDRIA in MN, USA
Report Time2019-03-21 14:53:00
UTC Time2019-03-21 15:33:35
Flight Rules vfr VFR
Wind260° at 07 kt
W.Decomp.*RWY 22: 5.7 kt HW 4.1 kt RCW
RWY 31: 4.1 kt HW 5.7 kt LCW
W.Rank260° ranks 34
Current wind is below 260° avg. (7.6)
Visibility9999 m
Phenomena:N/A
Clouds:N/A
Expected CloudBase > 1,200 ft AGL from Temp-Dew spread
CeilingNone
Temp01°C (ISA -11)
Dew Point-2°C (81% RH)
AAT-3.8°C
QNH1019 hPa
Density Alt-62 ft
Elevation1,421 ft
Report Wrong Elevation
Raw Report
KAXN 211453Z AUTO 26007KT 10SM CLR 01/M02 A3008 RMK AO2 SLP205
I1007 I3010 T00061017 58007=

Extra information for KAXN:More info

Metar Taf Metar & Taf Last 4 Metars F.Rules Stats Wind Profile Meteogram Temp Stats Airport Information Weather charts Add Link Nearby VenuesMetar ALERT Operation Metar Decoded Social comments

AIRNAV info for KAXN